createdAt,value
2023-01-06T00:00:46.033Z,0.52
2023-01-06T00:01:45.950Z,0.51
2023-01-06T00:02:45.934Z,0.51
2023-01-06T00:03:45.879Z,0.51
2023-01-06T00:04:45.902Z,0.51
2023-01-06T00:05:45.822Z,0.52
2023-01-06T00:06:45.801Z,0.51
2023-01-06T00:07:45.764Z,0.51
2023-01-06T00:08:45.756Z,0.52
2023-01-06T00:09:45.716Z,0.51
2023-01-06T00:10:45.728Z,0.51
2023-01-06T00:11:45.691Z,0.51
2023-01-06T00:12:45.666Z,0.51
2023-01-06T00:13:45.628Z,0.52
2023-01-06T00:14:45.616Z,0.51
2023-01-06T00:15:45.746Z,0.51
2023-01-06T00:16:45.569Z,0.51
2023-01-06T00:17:45.552Z,0.52
2023-01-06T00:18:45.512Z,0.51
2023-01-06T00:19:45.485Z,0.51
2023-01-06T00:20:45.463Z,0.51
2023-01-06T00:21:45.436Z,0.51
2023-01-06T00:22:45.433Z,0.51
2023-01-06T00:23:45.405Z,0.51
2023-01-06T00:24:45.347Z,0.51
2023-01-06T00:25:45.334Z,0.51
2023-01-06T00:26:45.318Z,0.51
2023-01-06T00:27:45.282Z,0.51
2023-01-06T00:28:45.273Z,0.52
2023-01-06T00:29:45.244Z,0.51
2023-01-06T00:30:45.301Z,0.51
2023-01-06T00:31:45.312Z,0.52
2023-01-06T00:32:45.143Z,0.51
2023-01-06T00:33:45.122Z,0.51
2023-01-06T00:34:45.100Z,0.51
2023-01-06T00:35:45.067Z,0.51
2023-01-06T00:36:45.067Z,0.51
2023-01-06T00:37:45.009Z,0.51
2023-01-06T00:38:44.976Z,0.52
2023-01-06T00:39:44.929Z,0.51
2023-01-06T00:40:44.906Z,0.51
2023-01-06T00:41:44.886Z,0.51
2023-01-06T00:42:44.867Z,0.51
2023-01-06T00:43:44.855Z,0.52
2023-01-06T00:44:44.804Z,0.52
2023-01-06T00:45:44.785Z,0.51
2023-01-06T00:46:44.745Z,0.51
2023-01-06T00:47:44.798Z,0.51
2023-01-06T00:48:59.969Z,0.51
2023-01-06T00:49:44.651Z,0.51
2023-01-06T00:50:44.646Z,0.51
2023-01-06T00:51:44.603Z,0.51
2023-01-06T00:52:44.572Z,0.51
2023-01-06T00:53:44.557Z,0.51
2023-01-06T00:54:44.512Z,0.51
2023-01-06T00:55:44.515Z,0.51
2023-01-06T00:56:44.457Z,0.51
2023-01-06T00:57:44.435Z,0.51
2023-01-06T00:58:44.417Z,0.51
2023-01-06T00:59:44.379Z,0.51
2023-01-06T01:00:44.355Z,0.51
2023-01-06T01:01:44.419Z,0.51
2023-01-06T01:02:44.426Z,0.51
2023-01-06T01:03:44.354Z,0.51
2023-01-06T01:04:44.252Z,0.51
2023-01-06T01:05:44.236Z,0.51
2023-01-06T01:06:44.189Z,0.51
2023-01-06T01:07:44.165Z,0.51
2023-01-06T01:08:44.168Z,0.52
2023-01-06T01:09:44.102Z,0.51
2023-01-06T01:10:44.063Z,0.52
2023-01-06T01:11:44.052Z,0.51
2023-01-06T01:12:44.016Z,0.52
2023-01-06T01:13:44.019Z,0.51
2023-01-06T01:14:44.011Z,0.51
2023-01-06T01:15:43.956Z,0.50
2023-01-06T01:16:43.915Z,0.51
2023-01-06T01:17:43.904Z,0.51
2023-01-06T01:18:43.867Z,0.51
2023-01-06T01:19:43.955Z,0.51
2023-01-06T01:20:43.819Z,0.51
2023-01-06T01:21:43.801Z,0.51
2023-01-06T01:22:43.748Z,0.51
2023-01-06T01:23:43.737Z,0.51
2023-01-06T01:24:43.728Z,0.50
2023-01-06T01:25:43.684Z,0.52
2023-01-06T01:26:43.674Z,0.51
2023-01-06T01:27:43.662Z,0.51
2023-01-06T01:28:43.604Z,0.51
2023-01-06T01:29:43.612Z,0.51
2023-01-06T01:30:43.595Z,0.51
2023-01-06T01:31:43.543Z,0.52
2023-01-06T01:32:43.505Z,0.51
2023-01-06T01:33:43.493Z,0.51
2023-01-06T01:34:43.462Z,0.51
2023-01-06T01:35:43.541Z,0.51
2023-01-06T01:36:43.388Z,0.51
2023-01-06T01:37:43.364Z,0.52
2023-01-06T01:38:43.344Z,0.51
2023-01-06T01:39:43.320Z,0.52
2023-01-06T01:40:43.280Z,0.51
2023-01-06T01:41:43.296Z,0.51
2023-01-06T01:42:43.233Z,0.51
2023-01-06T01:43:43.242Z,0.52
2023-01-06T01:44:43.195Z,0.52
2023-01-06T01:45:43.144Z,0.50
2023-01-06T01:46:43.130Z,0.52
2023-01-06T01:47:43.095Z,0.52
2023-01-06T01:48:43.060Z,0.51
2023-01-06T01:49:43.045Z,0.51
2023-01-06T01:50:43.002Z,0.50
2023-01-06T01:51:43.051Z,0.51
2023-01-06T04:02:38.826Z,0.51
2023-01-06T04:03:38.838Z,0.51
2023-01-06T04:04:38.751Z,0.51
2023-01-06T04:05:38.725Z,0.51
2023-01-06T04:06:38.681Z,0.51
2023-01-06T04:07:38.683Z,0.50
2023-01-06T04:09:38.597Z,0.50
2023-01-06T04:10:38.565Z,0.52
2023-01-06T04:11:38.521Z,0.52
2023-01-06T04:12:38.519Z,0.51
2023-01-06T04:13:38.451Z,0.51
2023-01-06T04:14:38.401Z,0.51
2023-01-06T04:15:38.447Z,0.51
2023-01-06T04:16:38.336Z,0.51
2023-01-06T04:17:38.313Z,0.51
2023-01-06T04:18:38.274Z,0.51
2023-01-06T04:19:38.233Z,0.51
2023-01-06T04:20:38.191Z,0.52
2023-01-06T04:21:38.172Z,0.51
2023-01-06T04:22:38.168Z,0.52
2023-01-06T04:23:38.120Z,0.51
2023-01-06T04:24:38.093Z,0.51
2023-01-06T04:25:38.056Z,0.52
2023-01-06T04:26:38.020Z,0.51
2023-01-06T04:27:38.011Z,0.50
2023-01-06T04:28:37.962Z,0.52
2023-01-06T04:29:37.917Z,0.50
2023-01-06T04:30:37.880Z,0.51
2023-01-06T04:31:38.004Z,0.51
2023-01-06T04:32:37.833Z,0.52
2023-01-06T04:33:37.821Z,0.51
2023-01-06T04:34:37.776Z,0.51
2023-01-06T04:35:37.740Z,0.51
2023-01-06T04:36:37.720Z,0.51
2023-01-06T04:37:37.690Z,0.51
2023-01-06T04:38:37.654Z,0.52
2023-01-06T04:39:37.622Z,0.51
2023-01-06T04:40:37.611Z,0.51
2023-01-06T04:41:37.583Z,0.51
2023-01-06T04:42:37.527Z,0.51
2023-01-06T04:43:37.512Z,0.51
2023-01-06T04:44:37.479Z,0.51
2023-01-06T04:45:37.467Z,0.51
2023-01-06T04:46:37.411Z,0.51
2023-01-06T04:47:37.444Z,0.51
2023-01-06T04:48:37.353Z,0.50
2023-01-06T04:49:37.292Z,0.51
2023-01-06T04:50:37.266Z,0.51
2023-01-06T04:51:37.238Z,0.51
2023-01-06T04:52:37.205Z,0.52
2023-01-06T04:53:37.185Z,0.51
2023-01-06T04:54:37.144Z,0.50
2023-01-06T04:55:37.123Z,0.51
2023-01-06T04:56:37.082Z,0.51
2023-01-06T04:57:37.057Z,0.51
2023-01-06T04:58:37.004Z,0.51
2023-01-06T04:59:36.975Z,0.51
2023-01-06T05:00:36.961Z,0.51
2023-01-06T05:01:37.077Z,0.50
2023-01-06T05:02:36.890Z,0.51
2023-01-06T05:03:36.979Z,0.51
2023-01-06T05:04:46.924Z,0.51
2023-01-06T05:05:37.798Z,0.51
2023-01-06T05:06:36.761Z,0.51
2023-01-06T05:07:36.735Z,0.51
2023-01-06T05:08:36.695Z,0.51
2023-01-06T05:09:36.808Z,0.51
2023-01-06T05:10:36.627Z,0.50
2023-01-06T05:11:36.583Z,0.51
2023-01-06T05:12:36.545Z,0.51
2023-01-06T05:13:36.520Z,0.51
2023-01-06T05:14:36.503Z,0.51
2023-01-06T05:15:36.462Z,0.51
2023-01-06T05:16:36.475Z,0.51
2023-01-06T05:17:36.372Z,0.51
2023-01-06T05:18:36.380Z,0.51
2023-01-06T05:19:36.408Z,0.51
2023-01-06T05:20:36.300Z,0.51
2023-01-06T05:21:36.260Z,0.51
2023-01-06T05:22:36.248Z,0.51
2023-01-06T05:23:36.201Z,0.51
2023-01-06T05:24:36.187Z,0.52
2023-01-06T05:25:36.149Z,0.51
2023-01-06T05:26:36.099Z,0.51
2023-01-06T05:27:36.070Z,0.51
2023-01-06T05:28:36.035Z,0.51
2023-01-06T05:29:36.028Z,0.52
2023-01-06T05:30:35.968Z,0.51
2023-01-06T05:31:36.011Z,0.51
2023-01-06T05:32:35.924Z,0.51
2023-01-06T05:33:35.874Z,0.51
2023-01-06T05:34:35.839Z,0.50
2023-01-06T05:35:35.871Z,0.51
2023-01-06T05:36:35.770Z,0.51
2023-01-06T05:37:35.749Z,0.51
2023-01-06T05:38:35.682Z,0.51
2023-01-06T05:39:35.691Z,0.51
2023-01-06T05:40:35.617Z,0.51
2023-01-06T05:41:35.596Z,0.51
2023-01-06T05:42:35.542Z,0.51
2023-01-06T05:43:35.504Z,0.51
2023-01-06T05:44:35.474Z,0.51
2023-01-06T05:45:35.448Z,0.51
2023-01-06T05:46:35.406Z,0.51
2023-01-06T05:47:35.353Z,0.51
2023-01-06T05:48:35.315Z,0.51
2023-01-06T05:49:35.277Z,0.51
2023-01-06T05:50:35.257Z,0.51
2023-01-06T05:51:35.281Z,0.51
2023-01-06T05:52:35.177Z,0.51
2023-01-06T05:53:35.134Z,0.51
2023-01-06T05:54:35.119Z,0.51
2023-01-06T05:55:35.076Z,0.51
2023-01-06T05:56:35.043Z,0.52
2023-01-06T05:57:34.995Z,0.51
2023-01-06T05:58:34.966Z,0.51
2023-01-06T05:59:34.956Z,0.50
2023-01-06T06:00:34.917Z,0.52
2023-01-06T06:01:34.907Z,0.51
2023-01-06T06:02:34.829Z,0.51
2023-01-06T06:03:34.792Z,0.51
2023-01-06T06:04:34.794Z,0.51
2023-01-06T06:05:34.786Z,0.52
2023-01-06T06:06:34.706Z,0.51
2023-01-06T06:07:34.753Z,0.50
2023-01-06T06:08:34.647Z,0.52
2023-01-06T06:09:34.612Z,0.52
2023-01-06T06:10:34.600Z,0.51
2023-01-06T06:11:34.546Z,0.51
2023-01-06T06:12:34.529Z,0.51
2023-01-06T06:13:34.484Z,0.51
2023-01-06T06:14:34.665Z,0.51
2023-01-06T06:15:34.433Z,0.52
2023-01-06T06:16:34.420Z,0.51
2023-01-06T06:17:34.391Z,0.51
2023-01-06T06:18:34.342Z,0.52
2023-01-06T06:19:34.282Z,0.51
2023-01-06T06:20:34.262Z,0.51
2023-01-06T06:21:34.227Z,0.51
2023-01-06T06:22:34.207Z,0.51
2023-01-06T06:23:34.266Z,0.51
2023-01-06T06:24:34.148Z,0.51
2023-01-06T06:25:34.098Z,0.51
2023-01-06T06:26:34.060Z,0.51
2023-01-06T06:27:34.033Z,0.51
2023-01-06T06:28:34.002Z,0.51
2023-01-06T06:29:33.951Z,0.51
2023-01-06T06:30:33.959Z,0.51
2023-01-06T06:31:33.945Z,0.51
2023-01-06T06:32:33.849Z,0.51
2023-01-06T06:33:33.841Z,0.50
2023-01-06T06:34:33.793Z,0.51
2023-01-06T06:35:33.749Z,0.51
2023-01-06T06:36:33.716Z,0.51
2023-01-06T06:37:33.678Z,0.52
2023-01-06T06:38:33.643Z,0.52
2023-01-06T06:39:33.678Z,0.52
2023-01-06T06:40:33.726Z,0.51
2023-01-06T06:41:33.559Z,0.51
2023-01-06T06:42:33.527Z,0.51
2023-01-06T06:43:33.470Z,0.51
2023-01-06T06:44:33.450Z,0.51
2023-01-06T06:45:33.823Z,0.52
2023-01-06T06:46:33.402Z,0.51
2023-01-06T06:47:33.345Z,0.51
2023-01-06T06:48:33.325Z,0.51
2023-01-06T06:49:33.279Z,0.52
2023-01-06T06:50:33.264Z,0.52
2023-01-06T06:51:33.205Z,0.50
2023-01-06T06:52:33.169Z,0.51
2023-01-06T06:53:33.129Z,0.51
2023-01-06T06:54:33.101Z,0.51
2023-01-06T06:55:33.131Z,0.51
2023-01-06T06:56:33.046Z,0.51
2023-01-06T06:57:32.964Z,0.52
2023-01-06T06:58:32.917Z,0.52
2023-01-06T06:59:32.874Z,0.50
2023-01-06T07:00:32.843Z,0.51
2023-01-06T07:01:32.908Z,0.51
2023-01-06T07:02:32.783Z,0.51
2023-01-06T07:03:32.738Z,0.52
2023-01-06T07:04:32.734Z,0.51
2023-01-06T07:05:32.658Z,0.51
2023-01-06T07:06:32.640Z,0.51
2023-01-06T07:07:32.568Z,0.52
2023-01-06T07:08:32.537Z,0.51
2023-01-06T07:09:32.511Z,0.52
2023-01-06T07:10:32.484Z,0.52
2023-01-06T07:11:32.515Z,0.51
2023-01-06T07:12:32.412Z,0.51
2023-01-06T07:13:32.363Z,0.51
2023-01-06T07:14:32.340Z,0.51
2023-01-06T07:15:32.371Z,0.51
2023-01-06T07:16:32.286Z,0.51
2023-01-06T07:17:32.227Z,0.52
2023-01-06T07:18:32.227Z,0.52
2023-01-06T07:19:32.176Z,0.51
2023-01-06T07:20:32.143Z,0.52
2023-01-06T07:21:32.117Z,0.51
2023-01-06T07:22:32.055Z,0.51
2023-01-06T07:23:32.055Z,0.51
2023-01-06T07:24:32.017Z,0.52
2023-01-06T07:25:31.964Z,0.51
2023-01-06T07:26:31.950Z,0.51
2023-01-06T07:27:31.959Z,0.52
2023-01-06T07:28:31.855Z,0.51
2023-01-06T07:29:31.798Z,0.50
2023-01-06T07:30:31.763Z,0.51
2023-01-06T07:31:31.752Z,0.51
2023-01-06T07:32:31.700Z,0.51
2023-01-06T07:33:31.666Z,0.51
2023-01-06T07:34:31.620Z,0.51
2023-01-06T07:35:31.573Z,0.51
2023-01-06T07:36:31.575Z,0.51
2023-01-06T07:37:31.572Z,0.51
2023-01-06T07:38:31.472Z,0.51
2023-01-06T07:39:31.440Z,0.51
2023-01-06T07:40:31.427Z,0.52
2023-01-06T07:41:31.374Z,0.51
2023-01-06T07:42:31.334Z,0.52
2023-01-06T07:43:31.388Z,0.51
2023-01-06T07:44:31.273Z,0.51
2023-01-06T07:45:31.232Z,0.52
2023-01-06T07:46:31.311Z,0.52
2023-01-06T07:47:31.187Z,0.52
2023-01-06T07:48:31.135Z,0.53
2023-01-06T07:49:31.070Z,0.52
2023-01-06T07:50:31.059Z,0.52
2023-01-06T07:51:30.999Z,0.52
2023-01-06T07:52:30.973Z,0.52
2023-01-06T07:53:30.938Z,0.52
2023-01-06T07:54:30.916Z,0.52
2023-01-06T07:55:30.865Z,0.52
2023-01-06T07:56:30.828Z,0.52
2023-01-06T07:57:30.848Z,0.52
2023-01-06T07:58:30.796Z,0.51
2023-01-06T07:59:30.728Z,0.52
2023-01-06T08:00:30.689Z,0.52
2023-01-06T08:01:30.815Z,0.51
2023-01-06T08:02:30.781Z,0.52
2023-01-06T08:03:30.596Z,0.52
2023-01-06T08:04:30.572Z,0.51
2023-01-06T08:05:30.546Z,0.52
2023-01-06T08:06:30.490Z,0.52
2023-01-06T08:07:30.470Z,0.51
2023-01-06T08:08:30.431Z,0.51
2023-01-06T08:09:30.403Z,0.51
2023-01-06T08:10:30.367Z,0.51
2023-01-06T08:11:30.322Z,0.51
2023-01-06T08:12:30.299Z,0.51
2023-01-06T08:13:30.280Z,0.52
2023-01-06T08:14:30.223Z,0.51
2023-01-06T08:15:30.275Z,0.52
2023-01-06T08:16:30.140Z,0.52
2023-01-06T08:17:30.140Z,0.52
2023-01-06T08:18:30.093Z,0.51
2023-01-06T08:19:30.064Z,0.52
2023-01-06T08:20:30.003Z,0.51
2023-01-06T08:21:29.971Z,0.52
2023-01-06T08:22:29.973Z,0.52
2023-01-06T08:23:29.913Z,0.52
2023-01-06T08:24:31.718Z,0.52
2023-01-06T08:25:29.865Z,0.51
2023-01-06T08:26:29.840Z,0.52
2023-01-06T08:27:29.823Z,0.51
2023-01-06T08:28:29.777Z,0.52
2023-01-06T08:29:29.755Z,0.51
2023-01-06T08:30:29.723Z,0.52
2023-01-06T08:31:29.880Z,0.52
2023-01-06T08:32:29.703Z,0.51
2023-01-06T08:33:29.626Z,0.51
2023-01-06T08:34:29.599Z,0.51
2023-01-06T08:35:29.601Z,0.51
2023-01-06T08:36:29.553Z,0.51
2023-01-06T08:37:29.939Z,0.51
2023-01-06T08:38:29.474Z,0.52
2023-01-06T08:39:29.442Z,0.51
2023-01-06T08:40:29.407Z,0.52
2023-01-06T08:41:29.377Z,0.51
2023-01-06T08:42:29.345Z,0.52
2023-01-06T08:43:29.326Z,0.51
2023-01-06T08:44:29.268Z,0.51
2023-01-06T08:45:29.238Z,0.52
2023-01-06T08:46:29.252Z,0.51
2023-01-06T08:47:29.245Z,0.51
2023-01-06T08:48:29.164Z,0.51
2023-01-06T08:49:29.124Z,0.51
2023-01-06T08:50:29.099Z,0.50
2023-01-06T08:51:29.046Z,0.51
2023-01-06T08:52:29.018Z,0.51
2023-01-06T08:53:29.001Z,0.52
2023-01-06T08:54:28.947Z,0.51
2023-01-06T08:55:28.926Z,0.52
2023-01-06T08:56:28.889Z,0.51
2023-01-06T08:57:28.842Z,0.51
2023-01-06T08:58:28.821Z,0.51
2023-01-06T08:59:28.779Z,0.51
2023-01-06T09:00:28.751Z,0.52
2023-01-06T09:01:28.870Z,0.51
2023-01-06T09:02:28.710Z,0.51
2023-01-06T09:03:28.737Z,0.52
2023-01-06T09:04:28.618Z,0.51
2023-01-06T09:05:28.579Z,0.52
2023-01-06T09:06:28.546Z,0.52
2023-01-06T09:07:28.497Z,0.51
2023-01-06T09:08:28.469Z,0.52
2023-01-06T09:09:28.436Z,0.51
2023-01-06T09:10:28.424Z,0.52
2023-01-06T09:11:28.375Z,0.52
2023-01-06T09:12:28.345Z,0.51
2023-01-06T09:13:28.308Z,0.51
2023-01-06T09:14:28.254Z,0.53
2023-01-06T09:15:28.210Z,0.51
2023-01-06T09:16:28.167Z,0.52
2023-01-06T09:17:28.135Z,0.52
2023-01-06T09:18:28.091Z,0.52
2023-01-06T09:19:28.146Z,0.52
2023-01-06T09:20:28.855Z,0.52
2023-01-06T09:21:28.017Z,0.51
2023-01-06T09:22:27.953Z,0.51
2023-01-06T09:23:27.896Z,0.52
2023-01-06T09:24:27.863Z,0.51
2023-01-06T09:25:27.822Z,0.53
2023-01-06T09:26:27.802Z,0.52
2023-01-06T09:27:27.781Z,0.50
2023-01-06T09:28:27.724Z,0.53
2023-01-06T09:29:27.708Z,0.54
2023-01-06T09:30:27.651Z,0.53
2023-01-06T09:31:27.615Z,0.52
2023-01-06T09:32:27.559Z,0.50
2023-01-06T09:33:27.768Z,0.51
2023-01-06T09:34:27.525Z,0.51
2023-01-06T09:35:27.519Z,0.53
2023-01-06T09:36:27.435Z,0.52
2023-01-06T09:37:27.358Z,0.54
2023-01-06T09:38:27.306Z,0.53
2023-01-06T09:39:27.301Z,0.51
2023-01-06T09:40:27.233Z,0.52
2023-01-06T09:41:27.190Z,0.53
2023-01-06T09:42:27.140Z,0.53
2023-01-06T09:43:27.102Z,0.53
2023-01-06T09:44:27.055Z,0.51
2023-01-06T09:45:27.899Z,0.53
2023-01-06T09:46:26.984Z,0.52
2023-01-06T09:47:26.912Z,0.51
2023-01-06T09:48:26.875Z,0.52
2023-01-06T09:49:26.835Z,0.52
2023-01-06T09:50:26.796Z,0.53
2023-01-06T09:51:26.817Z,0.52
2023-01-06T09:52:26.699Z,0.51
2023-01-06T09:53:26.669Z,0.53
2023-01-06T09:54:26.633Z,0.50
2023-01-06T09:55:26.593Z,0.52
2023-01-06T09:56:26.576Z,0.51
2023-01-06T09:57:26.494Z,0.52
2023-01-06T09:58:26.470Z,0.52
2023-01-06T09:59:26.435Z,0.52
2023-01-06T10:00:26.363Z,0.52
2023-01-06T10:01:26.408Z,0.52
2023-01-06T10:02:26.357Z,0.51
2023-01-06T10:03:26.231Z,0.53
2023-01-06T10:04:26.202Z,0.52
2023-01-06T10:05:26.151Z,0.52
2023-01-06T10:06:26.128Z,0.52
2023-01-06T10:07:26.091Z,0.51
2023-01-06T10:08:25.975Z,0.52
2023-01-06T10:09:25.941Z,0.52
2023-01-06T10:10:25.857Z,0.52
2023-01-06T10:11:25.818Z,0.52
2023-01-06T10:12:25.747Z,0.52
2023-01-06T10:13:25.718Z,0.52
2023-01-06T10:14:25.674Z,0.52
2023-01-06T10:15:27.745Z,0.52
2023-01-06T10:16:25.574Z,0.53
2023-01-06T10:17:25.524Z,0.53
2023-01-06T10:18:25.438Z,0.52
2023-01-06T10:19:25.403Z,0.52
2023-01-06T10:20:25.341Z,0.52
2023-01-06T10:21:25.305Z,0.52
2023-01-06T10:22:25.256Z,0.51
2023-01-06T10:23:25.248Z,0.52
2023-01-06T10:24:25.123Z,0.52
2023-01-06T10:25:25.109Z,0.52
2023-01-06T10:26:25.032Z,0.52
2023-01-06T10:27:24.991Z,0.52
2023-01-06T10:28:24.936Z,0.53
2023-01-06T10:29:24.857Z,0.52
2023-01-06T10:30:27.942Z,0.53
2023-01-06T10:31:25.844Z,0.53
2023-01-06T10:32:24.773Z,0.52
2023-01-06T10:34:24.609Z,0.52
2023-01-06T10:35:24.585Z,0.53
2023-01-06T10:36:24.841Z,0.52
2023-01-06T10:37:24.468Z,0.53
2023-01-06T10:38:24.411Z,0.52
2023-01-06T10:39:24.437Z,0.52
2023-01-06T10:40:24.323Z,0.54
2023-01-06T10:41:24.250Z,0.52
2023-01-06T10:42:24.167Z,0.53
2023-01-06T10:43:24.120Z,0.51
2023-01-06T10:44:24.082Z,0.53
2023-01-06T10:45:24.051Z,0.52
2023-01-06T10:46:23.955Z,0.52
2023-01-06T10:47:23.900Z,0.53
2023-01-06T10:48:23.853Z,0.52
2023-01-06T10:49:23.782Z,0.52
2023-01-06T10:50:23.727Z,0.52
2023-01-06T10:51:23.655Z,0.52
2023-01-06T10:52:23.596Z,0.52
2023-01-06T10:53:23.524Z,0.53
2023-01-06T10:54:23.480Z,0.53
2023-01-06T10:55:23.515Z,0.53
2023-01-06T10:56:23.385Z,0.53
2023-01-06T10:57:23.305Z,0.54
2023-01-06T10:58:23.236Z,0.54
2023-01-06T10:59:23.195Z,0.54
2023-01-06T11:00:23.148Z,0.54
2023-01-06T11:01:23.246Z,0.54
2023-01-06T11:02:23.148Z,0.54
2023-01-06T11:03:33.414Z,0.54
2023-01-06T11:04:23.905Z,0.54
2023-01-06T11:30:21.269Z,0.57
2023-01-06T11:31:21.205Z,0.56
2023-01-06T11:32:21.093Z,0.57
2023-01-06T11:33:21.021Z,0.57
2023-01-06T11:34:20.960Z,0.56
2023-01-06T11:36:20.870Z,0.57
2023-01-06T11:37:20.759Z,0.57
2023-01-06T11:39:20.649Z,0.57
2023-01-06T11:40:20.567Z,0.55
2023-01-06T11:41:20.500Z,0.57
2023-01-06T11:42:20.417Z,0.58
2023-01-06T11:43:20.450Z,0.57
2023-01-06T11:44:20.288Z,0.57
2023-01-06T11:45:20.227Z,0.57
2023-01-06T11:46:20.160Z,0.57
2023-01-06T11:47:20.090Z,0.57
2023-01-06T11:48:20.023Z,0.57
2023-01-06T11:49:20.467Z,0.57
2023-01-06T11:50:19.903Z,0.57
2023-01-06T11:51:19.795Z,0.58
2023-01-06T11:52:19.696Z,0.57
2023-01-06T11:53:19.637Z,0.57
2023-01-06T11:54:19.536Z,0.57
2023-01-06T11:55:19.461Z,0.57
2023-01-06T11:56:19.397Z,0.57
2023-01-06T11:57:19.310Z,0.57
2023-01-06T11:58:19.225Z,0.58
2023-01-06T11:59:19.250Z,0.57
2023-01-06T12:00:19.090Z,0.58
2023-01-06T12:01:19.049Z,0.58
2023-01-06T12:02:18.958Z,0.58
2023-01-06T12:03:18.902Z,0.59
2023-01-06T12:04:18.768Z,0.59
2023-01-06T12:05:18.690Z,0.59
2023-01-06T12:06:18.592Z,0.60
2023-01-06T12:07:18.560Z,0.59
2023-01-06T12:08:18.467Z,0.59
2023-01-06T12:09:18.372Z,0.58
2023-01-06T12:10:18.323Z,0.58
2023-01-06T12:11:18.228Z,0.57
2023-01-06T12:12:18.153Z,0.58
2023-01-06T12:13:18.078Z,0.57
2023-01-06T12:14:27.909Z,0.58
2023-01-06T12:15:18.934Z,0.58
2023-01-06T12:16:17.976Z,0.58
2023-01-06T12:17:17.913Z,0.59
2023-01-06T12:18:17.700Z,0.60
2023-01-06T12:19:17.628Z,0.62
2023-01-06T12:20:17.603Z,0.62
2023-01-06T12:21:17.484Z,0.62
2023-01-06T12:22:17.421Z,0.62
2023-01-06T12:23:17.333Z,0.62
2023-01-06T12:24:17.262Z,0.64
2023-01-06T12:25:17.181Z,0.63
2023-01-06T12:26:17.101Z,0.64
2023-01-06T12:27:17.049Z,0.64
2023-01-06T12:28:16.958Z,0.64
2023-01-06T12:29:16.877Z,0.66
2023-01-06T12:30:16.804Z,0.67
2023-01-06T12:31:16.902Z,0.67
2023-01-06T12:32:16.636Z,0.67
2023-01-06T12:33:16.554Z,0.69
2023-01-06T12:34:16.473Z,0.70
2023-01-06T12:35:16.387Z,0.71
2023-01-06T12:36:16.352Z,0.73
2023-01-06T12:37:16.247Z,0.74
2023-01-06T12:38:16.182Z,0.73
2023-01-06T12:39:16.069Z,0.75
2023-01-06T12:40:16.019Z,0.75
2023-01-06T12:41:15.913Z,0.76
2023-01-06T12:42:15.838Z,0.76
2023-01-06T12:43:15.763Z,0.77
2023-01-06T12:44:15.654Z,0.79
2023-01-06T12:45:15.582Z,0.79
2023-01-06T12:46:15.517Z,0.81
2023-01-06T12:47:15.485Z,0.81
2023-01-06T12:48:15.343Z,0.82
2023-01-06T12:49:15.220Z,0.83
2023-01-06T12:50:15.166Z,0.83
2023-01-06T12:51:15.047Z,0.83
2023-01-06T12:52:14.958Z,0.84
2023-01-06T12:53:20.643Z,0.83
2023-01-06T12:54:15.799Z,0.83
2023-01-06T12:55:14.706Z,0.84
2023-01-06T12:56:14.625Z,0.83
2023-01-06T12:57:14.494Z,0.77
2023-01-06T12:58:14.440Z,0.71
2023-01-06T12:59:14.342Z,0.66
2023-01-06T13:00:14.261Z,0.63
2023-01-06T13:01:14.204Z,0.59
2023-01-06T13:02:14.120Z,0.58
2023-01-06T13:03:14.114Z,0.54
2023-01-06T13:04:13.991Z,0.55
2023-01-06T13:05:13.873Z,0.53
2023-01-06T13:06:13.773Z,0.53
2023-01-06T13:07:13.692Z,0.52
2023-01-06T13:08:13.636Z,0.52
2023-01-06T13:09:13.547Z,0.50
2023-01-06T13:10:13.464Z,0.50
2023-01-06T13:11:13.417Z,0.53
2023-01-06T13:12:13.327Z,0.57
2023-01-06T13:13:13.243Z,0.63
2023-01-06T13:14:13.147Z,0.68
2023-01-06T13:15:13.053Z,0.74
2023-01-06T13:16:13.046Z,0.78
2023-01-06T13:17:12.870Z,0.79
2023-01-06T13:18:12.804Z,0.84
2023-01-06T13:19:12.756Z,0.84
2023-01-06T13:20:12.589Z,0.87
2023-01-06T13:21:12.497Z,0.90
2023-01-06T13:22:12.387Z,0.94
2023-01-06T13:23:12.260Z,0.97
2023-01-06T13:24:12.169Z,0.97
2023-01-06T13:25:12.052Z,1.02
2023-01-06T13:26:11.960Z,1.03
2023-01-06T13:27:11.849Z,1.05
2023-01-06T13:28:11.781Z,1.06
2023-01-06T13:29:11.653Z,1.07
2023-01-06T13:30:11.513Z,1.11
2023-01-06T13:31:11.487Z,1.11
2023-01-06T13:32:11.287Z,1.12
2023-01-06T13:33:11.190Z,1.14
2023-01-06T13:34:11.081Z,1.15
2023-01-06T13:35:11.046Z,1.14
2023-01-06T13:36:10.846Z,1.15
2023-01-06T13:37:10.715Z,1.16
2023-01-06T13:38:10.594Z,1.13
2023-01-06T13:39:10.778Z,1.15
2023-01-06T13:40:10.395Z,1.15
2023-01-06T13:41:10.257Z,1.14
2023-01-06T13:42:10.125Z,1.13
2023-01-06T13:43:10.015Z,1.12
2023-01-06T13:44:09.880Z,1.09
2023-01-06T13:45:10.318Z,1.09
2023-01-06T13:46:09.630Z,1.07
2023-01-06T13:47:09.550Z,1.01
2023-01-06T13:48:09.404Z,0.89
2023-01-06T13:49:09.300Z,0.85
2023-01-06T13:50:09.226Z,0.74
2023-01-06T13:51:09.166Z,0.68
2023-01-06T13:52:08.982Z,0.61
2023-01-06T13:53:08.913Z,0.56
2023-01-06T13:54:08.810Z,0.53
2023-01-06T13:55:08.720Z,0.50
2023-01-06T13:56:08.637Z,0.50
2023-01-06T13:57:08.542Z,0.51
2023-01-06T13:58:08.473Z,0.51
2023-01-06T13:59:08.432Z,0.51
2023-01-06T14:00:08.389Z,0.51
2023-01-06T14:01:08.323Z,0.51
2023-01-06T14:02:08.309Z,0.50
2023-01-06T14:03:08.204Z,0.50
2023-01-06T14:04:08.068Z,0.50
2023-01-06T14:05:07.987Z,0.50
2023-01-06T14:06:07.914Z,0.51
2023-01-06T14:07:07.920Z,0.51
2023-01-06T14:08:07.789Z,0.50
2023-01-06T14:09:07.740Z,0.50
2023-01-06T14:10:07.733Z,0.50
2023-01-06T14:11:07.589Z,0.51
2023-01-06T14:12:09.056Z,0.51
2023-01-06T14:13:07.440Z,0.51
2023-01-06T14:14:07.387Z,0.51
2023-01-06T14:15:07.338Z,0.51
2023-01-06T14:16:07.323Z,0.51
2023-01-06T14:17:07.196Z,0.50
2023-01-06T14:18:07.127Z,0.50
2023-01-06T14:19:07.079Z,0.51
2023-01-06T14:20:07.152Z,0.50
2023-01-06T14:21:06.963Z,0.50
2023-01-06T14:22:06.896Z,0.50
2023-01-06T14:23:06.922Z,0.50
2023-01-06T14:24:06.803Z,0.51
2023-01-06T14:25:06.718Z,0.51
2023-01-06T14:26:06.657Z,0.51
2023-01-06T14:27:06.594Z,0.51
2023-01-06T14:28:06.557Z,0.50
2023-01-06T14:29:06.454Z,0.51
2023-01-06T14:30:06.397Z,0.52
2023-01-06T14:31:06.435Z,0.51
2023-01-06T14:32:06.294Z,0.51
2023-01-06T14:33:06.243Z,0.51
2023-01-06T14:34:06.156Z,0.50
2023-01-06T14:35:06.099Z,0.51
2023-01-06T14:36:06.032Z,0.52
2023-01-06T14:37:05.976Z,0.51
2023-01-06T14:38:05.932Z,0.52
2023-01-06T14:39:05.936Z,0.52
2023-01-06T14:40:05.786Z,0.51
2023-01-06T14:41:05.731Z,0.51
2023-01-06T14:42:05.672Z,0.51
2023-01-06T14:43:05.589Z,0.52
2023-01-06T14:44:05.538Z,0.52
2023-01-06T14:45:05.499Z,0.51
2023-01-06T14:46:05.459Z,0.51
2023-01-06T14:47:05.348Z,0.50
2023-01-06T14:48:05.297Z,0.51
2023-01-06T14:49:05.222Z,0.51
2023-01-06T14:50:05.251Z,0.51
2023-01-06T14:51:05.082Z,0.52
2023-01-06T14:52:05.048Z,0.51
2023-01-06T14:53:04.974Z,0.51
2023-01-06T14:54:04.915Z,0.51
2023-01-06T14:55:04.930Z,0.51
2023-01-06T14:56:04.788Z,0.50
2023-01-06T14:57:04.699Z,0.51
2023-01-06T14:58:04.667Z,0.51
2023-01-06T14:59:04.622Z,0.51
2023-01-06T15:00:04.560Z,0.51
2023-01-06T15:01:04.501Z,0.52
2023-01-06T15:02:04.618Z,0.52
2023-01-06T15:03:04.401Z,0.52
2023-01-06T15:04:04.297Z,0.52
2023-01-06T15:05:06.169Z,0.52
2023-01-06T15:06:04.311Z,0.53
2023-01-06T15:07:04.279Z,0.51
2023-01-06T15:08:04.210Z,0.52
2023-01-06T15:09:04.128Z,0.51
2023-01-06T15:10:04.148Z,0.52
2023-01-06T15:11:04.110Z,0.52
2023-01-06T15:12:03.989Z,0.52
2023-01-06T15:13:03.950Z,0.52
2023-01-06T15:14:03.948Z,0.53
2023-01-06T15:15:03.966Z,0.52
2023-01-06T15:16:04.039Z,0.53
2023-01-06T15:17:03.962Z,0.53
2023-01-06T15:18:03.963Z,0.53
2023-01-06T15:19:03.982Z,0.53
2023-01-06T15:20:04.003Z,0.52
2023-01-06T15:21:04.032Z,0.53
2023-01-06T15:22:03.999Z,0.52
2023-01-06T15:23:04.000Z,0.53
2023-01-06T15:24:04.007Z,0.53
2023-01-06T15:25:04.029Z,0.53
2023-01-06T15:26:04.043Z,0.53
2023-01-06T15:27:04.112Z,0.53
2023-01-06T15:28:04.036Z,0.53
2023-01-06T15:29:04.058Z,0.53
2023-01-06T15:30:04.071Z,0.53
2023-01-06T15:31:04.180Z,0.52
2023-01-06T15:32:04.097Z,0.52
2023-01-06T15:33:04.108Z,0.53
2023-01-06T15:34:04.114Z,0.53
2023-01-06T15:35:04.137Z,0.53
2023-01-06T15:36:04.153Z,0.52
2023-01-06T15:37:04.159Z,0.52
2023-01-06T15:38:04.175Z,0.52
2023-01-06T15:39:04.172Z,0.53
2023-01-06T15:40:04.168Z,0.53
2023-01-06T15:41:04.190Z,0.53
2023-01-06T15:42:04.192Z,0.53
2023-01-06T15:43:04.277Z,0.53
2023-01-06T15:44:04.208Z,0.53
2023-01-06T15:45:06.780Z,0.53
2023-01-06T15:46:04.236Z,0.54
2023-01-06T15:47:04.111Z,0.54
2023-01-06T15:48:04.077Z,0.53
2023-01-06T15:49:04.029Z,0.53
2023-01-06T15:50:03.996Z,0.53
2023-01-06T15:51:03.953Z,0.53
2023-01-06T15:52:03.880Z,0.54
2023-01-06T15:53:03.824Z,0.52
2023-01-06T15:54:03.787Z,0.53
2023-01-06T15:55:03.727Z,0.55
2023-01-06T15:56:06.012Z,0.54
2023-01-06T15:57:15.833Z,0.54